createdAt,value
2019-05-23T00:00:52.415Z,99.90
2019-05-23T00:03:24.154Z,99.90
2019-05-23T00:06:03.970Z,99.90
2019-05-23T00:08:34.020Z,99.90
2019-05-23T00:11:22.089Z,99.90
2019-05-23T00:14:00.916Z,99.90
2019-05-23T00:16:30.837Z,99.90
2019-05-23T00:19:00.421Z,99.90
2019-05-23T00:21:30.546Z,99.90
2019-05-23T00:24:00.097Z,99.90
2019-05-23T00:26:30.014Z,99.90
2019-05-23T00:29:09.694Z,99.90
2019-05-23T00:31:45.295Z,99.90
2019-05-23T00:34:15.205Z,99.90
2019-05-23T00:36:44.368Z,99.90
2019-05-23T00:39:14.469Z,99.90
2019-05-23T00:41:45.295Z,99.90
2019-05-23T00:44:15.802Z,99.90
2019-05-23T00:46:45.340Z,99.90
2019-05-23T00:49:16.002Z,99.90
2019-05-23T00:51:46.177Z,99.90
2019-05-23T00:54:15.695Z,99.90
2019-05-23T00:56:45.346Z,99.90
2019-05-23T00:59:26.448Z,99.90
2019-05-23T01:01:48.629Z,99.90
2019-05-23T01:04:18.102Z,99.90
2019-05-23T01:06:48.430Z,99.90
2019-05-23T01:09:17.780Z,99.90
2019-05-23T01:11:47.477Z,99.90
2019-05-23T01:14:23.301Z,99.90
2019-05-23T01:16:53.699Z,99.90
2019-05-23T01:19:22.772Z,99.90
2019-05-23T01:22:00.503Z,99.90
2019-05-23T01:24:34.245Z,99.90
2019-05-23T01:27:04.486Z,99.90
2019-05-23T01:29:39.641Z,99.90
2019-05-23T01:32:31.958Z,99.90
2019-05-23T01:35:02.863Z,99.90
2019-05-23T01:37:31.890Z,99.90
2019-05-23T01:40:01.930Z,99.90
2019-05-23T01:42:30.985Z,99.90
2019-05-23T01:45:02.589Z,99.90
2019-05-23T01:47:32.284Z,99.90
2019-05-23T01:50:01.958Z,99.90
2019-05-23T01:52:31.535Z,99.90
2019-05-23T01:55:00.705Z,99.90
2019-05-23T01:57:30.151Z,99.90
2019-05-23T02:00:10.080Z,99.90
2019-05-23T02:02:30.884Z,99.90
2019-05-23T02:05:00.434Z,99.90
2019-05-23T02:07:30.125Z,99.90
2019-05-23T02:09:59.253Z,99.90
2019-05-23T02:12:28.794Z,99.90
2019-05-23T02:14:59.450Z,99.90
2019-05-23T02:17:28.474Z,99.90
2019-05-23T02:19:58.006Z,99.90
2019-05-23T02:22:27.395Z,99.90
2019-05-23T02:24:57.028Z,99.90
2019-05-23T02:27:26.711Z,99.90
2019-05-23T02:29:55.743Z,99.90
2019-05-23T02:32:25.770Z,99.90
2019-05-23T02:34:55.682Z,99.90
2019-05-23T02:37:42.012Z,99.90
2019-05-23T02:40:17.808Z,99.90
2019-05-23T02:42:52.461Z,99.90
2019-05-23T02:45:28.513Z,99.90
2019-05-23T02:47:58.123Z,99.90
2019-05-23T02:50:40.190Z,99.90
2019-05-23T02:53:12.623Z,99.90
2019-05-23T02:55:42.243Z,99.90
2019-05-23T02:58:20.589Z,99.90
2019-05-23T03:01:20.026Z,99.90
2019-05-23T03:03:51.051Z,99.90
2019-05-23T03:06:21.134Z,99.90
2019-05-23T03:08:52.235Z,99.90
2019-05-23T03:11:39.790Z,99.90
2019-05-23T03:14:11.515Z,99.90
2019-05-23T03:16:43.555Z,99.90
2019-05-23T03:19:23.092Z,99.90
2019-05-23T03:21:55.159Z,99.90
2019-05-23T03:24:26.487Z,99.90
2019-05-23T03:27:07.731Z,99.90
2019-05-23T03:29:57.648Z,99.90
2019-05-23T03:32:43.808Z,99.90
2019-05-23T03:35:30.883Z,99.90
2019-05-23T03:38:02.251Z,99.90
2019-05-23T03:40:31.835Z,99.90
2019-05-23T03:43:01.267Z,99.90
2019-05-23T03:45:32.875Z,99.90
2019-05-23T03:48:02.937Z,99.90
2019-05-23T03:50:33.012Z,99.90
2019-05-23T03:53:13.642Z,99.90
2019-05-23T03:55:42.980Z,99.90
2019-05-23T03:58:12.716Z,99.90
2019-05-23T04:00:53.030Z,99.90
2019-05-23T04:03:29.509Z,99.90
2019-05-23T04:05:58.728Z,99.90
2019-05-23T04:08:28.216Z,99.90
2019-05-23T04:10:57.664Z,99.90
2019-05-23T04:13:26.680Z,99.90
2019-05-23T04:15:55.619Z,99.90
2019-05-23T04:18:24.901Z,99.90
2019-05-23T04:20:54.207Z,99.90
2019-05-23T04:23:23.084Z,99.90
2019-05-23T04:25:51.986Z,99.90
2019-05-23T04:28:21.607Z,99.90
2019-05-23T04:30:50.626Z,99.90
2019-05-23T04:33:19.481Z,99.90
2019-05-23T04:35:48.607Z,99.90
2019-05-23T04:38:17.564Z,99.90
2019-05-23T04:40:46.347Z,99.90
2019-05-23T04:43:15.411Z,99.90
2019-05-23T04:45:44.638Z,99.90
2019-05-23T04:48:13.654Z,99.90
2019-05-23T04:50:42.886Z,99.90
2019-05-23T04:53:12.107Z,99.90
2019-05-23T04:55:42.102Z,99.90
2019-05-23T04:58:11.728Z,99.90
2019-05-23T05:00:46.800Z,99.90
2019-05-23T05:03:18.391Z,99.90
2019-05-23T05:05:47.589Z,99.90
2019-05-23T05:08:22.372Z,99.90
2019-05-23T05:10:51.737Z,99.90
2019-05-23T05:13:20.631Z,99.90
2019-05-23T05:15:49.924Z,99.90
2019-05-23T05:18:19.083Z,99.90
2019-05-23T05:20:48.544Z,99.90
2019-05-23T05:23:17.482Z,99.90
2019-05-23T05:25:46.735Z,99.90
2019-05-23T05:28:15.665Z,99.90
2019-05-23T05:30:44.672Z,99.90
2019-05-23T05:33:13.584Z,99.90
2019-05-23T05:35:43.067Z,98.40
2019-05-23T05:38:12.161Z,96.80
2019-05-23T05:40:41.684Z,94.70
2019-05-23T05:43:10.632Z,92.80
2019-05-23T05:45:39.648Z,89.20
2019-05-23T05:48:08.779Z,89.30
2019-05-23T05:50:38.378Z,85.80
2019-05-23T05:53:09.325Z,82.40
2019-05-23T05:55:38.304Z,79.20
2019-05-23T05:58:07.888Z,72.60
2019-05-23T06:00:51.184Z,71.80
2019-05-23T06:03:20.372Z,70.20
2019-05-23T06:06:11.388Z,67.20
2019-05-23T06:08:42.712Z,65.40
2019-05-23T06:11:12.389Z,62.70
2019-05-23T06:13:41.331Z,64.00
2019-05-23T06:16:10.373Z,61.90
2019-05-23T06:18:39.303Z,62.70
2019-05-23T06:21:10.790Z,60.90
2019-05-23T06:23:39.919Z,60.70
2019-05-23T06:26:09.248Z,59.40
2019-05-23T06:28:39.560Z,56.90
2019-05-23T06:31:09.623Z,56.40
2019-05-23T06:33:39.079Z,53.50
2019-05-23T06:36:08.212Z,51.10
2019-05-23T06:38:37.668Z,51.80
2019-05-23T06:41:06.749Z,50.00
2019-05-23T06:43:37.288Z,48.10
2019-05-23T06:46:06.811Z,46.40
2019-05-23T06:48:36.175Z,44.80
2019-05-23T06:51:05.527Z,43.40
2019-05-23T06:53:34.464Z,42.00
2019-05-23T06:56:03.540Z,40.20
2019-05-23T06:58:32.549Z,39.30
2019-05-23T07:01:01.652Z,37.30
2019-05-23T07:03:41.200Z,36.60
2019-05-23T07:06:02.385Z,35.80
2019-05-23T07:08:31.406Z,35.60
2019-05-23T07:11:00.451Z,34.40
2019-05-23T07:13:31.593Z,35.70
2019-05-23T07:16:00.632Z,36.10
2019-05-23T07:18:29.672Z,35.20
2019-05-23T07:20:58.695Z,34.20
2019-05-23T07:23:27.525Z,33.50
2019-05-23T07:25:56.671Z,32.70
2019-05-23T07:28:25.501Z,31.50
2019-05-23T07:30:55.042Z,30.70
2019-05-23T07:33:24.055Z,29.90
2019-05-23T07:35:53.821Z,29.50
2019-05-23T07:38:22.708Z,28.70
2019-05-23T07:40:52.057Z,27.50
2019-05-23T07:43:21.621Z,27.20
2019-05-23T07:45:57.507Z,27.30
2019-05-23T07:48:27.034Z,26.30
2019-05-23T07:50:56.131Z,25.10
2019-05-23T07:53:35.522Z,25.10
2019-05-23T07:56:06.995Z,24.10
2019-05-23T07:58:36.265Z,24.50
2019-05-23T08:01:07.170Z,23.60
2019-05-23T08:03:40.250Z,23.00
2019-05-23T08:06:09.991Z,22.30
2019-05-23T08:08:38.891Z,22.40
2019-05-23T08:11:07.829Z,22.00
2019-05-23T08:13:37.248Z,21.50
2019-05-23T08:16:06.288Z,20.00
2019-05-23T08:18:35.185Z,20.70
2019-05-23T08:21:04.166Z,20.90
2019-05-23T08:23:33.310Z,20.10
2019-05-23T08:26:02.345Z,19.50
2019-05-23T08:28:32.270Z,19.10
2019-05-23T08:31:01.253Z,18.30
2019-05-23T08:33:30.107Z,18.30
2019-05-23T08:35:58.917Z,17.90
2019-05-23T08:38:29.344Z,17.60
2019-05-23T08:40:58.698Z,17.20
2019-05-23T08:43:27.724Z,16.20
2019-05-23T08:45:56.711Z,16.70
2019-05-23T08:48:25.630Z,16.70
2019-05-23T08:50:55.416Z,16.60
2019-05-23T08:53:25.342Z,16.50
2019-05-23T08:55:54.334Z,16.30
2019-05-23T08:58:23.194Z,15.80
2019-05-23T09:00:52.469Z,15.30
2019-05-23T09:03:22.550Z,14.60
2019-05-23T09:06:11.527Z,15.10
2019-05-23T09:08:41.163Z,15.00
2019-05-23T09:11:11.137Z,14.50
2019-05-23T09:13:40.262Z,14.00
2019-05-23T09:16:10.009Z,15.30
2019-05-23T09:18:38.986Z,14.80
2019-05-23T09:21:08.145Z,15.20
2019-05-23T09:23:37.373Z,15.60
2019-05-23T09:26:06.297Z,15.00
2019-05-23T09:28:35.159Z,14.60
2019-05-23T09:31:04.685Z,13.80
2019-05-23T09:33:33.840Z,13.40
2019-05-23T09:36:02.942Z,12.80
2019-05-23T09:38:31.815Z,12.60
2019-05-23T09:41:00.727Z,12.10
2019-05-23T09:43:29.512Z,11.80
2019-05-23T09:45:58.531Z,11.90
2019-05-23T09:48:27.702Z,11.80
2019-05-23T09:50:59.060Z,11.10
2019-05-23T09:53:28.434Z,10.40
2019-05-23T09:55:57.262Z,10.00
2019-05-23T09:58:26.307Z,10.50
2019-05-23T10:00:55.346Z,10.80
2019-05-23T10:03:24.165Z,10.90
2019-05-23T10:05:54.131Z,10.70
2019-05-23T10:08:23.242Z,10.00
2019-05-23T10:10:52.574Z,10.40
2019-05-23T10:13:37.784Z,10.70
2019-05-23T10:16:01.355Z,10.80
2019-05-23T10:18:30.219Z,10.10
2019-05-23T10:20:59.339Z,13.80
2019-05-23T10:23:28.186Z,13.50
2019-05-23T10:25:57.194Z,14.50
2019-05-23T10:28:26.188Z,13.90
2019-05-23T10:30:55.044Z,15.20
2019-05-23T10:33:23.895Z,16.50
2019-05-23T10:36:00.356Z,17.70
2019-05-23T10:38:23.327Z,17.60
2019-05-23T10:40:52.101Z,15.70
2019-05-23T10:43:21.029Z,15.00
2019-05-23T10:45:49.973Z,13.30
2019-05-23T10:48:18.914Z,12.00
2019-05-23T10:50:47.769Z,11.10
2019-05-23T10:53:16.870Z,10.20
2019-05-23T10:55:45.722Z,9.70
2019-05-23T10:58:16.030Z,11.40
2019-05-23T11:00:47.407Z,13.20
2019-05-23T11:03:17.139Z,15.30
2019-05-23T11:05:46.868Z,16.30
2019-05-23T11:08:16.793Z,14.30
2019-05-23T11:10:46.490Z,14.20
2019-05-23T11:13:15.495Z,12.90
2019-05-23T11:15:44.540Z,13.60
2019-05-23T11:18:13.414Z,12.50
2019-05-23T11:20:42.413Z,13.80
2019-05-23T11:23:13.375Z,14.70
2019-05-23T11:25:42.728Z,13.30
2019-05-23T11:28:11.650Z,11.90
2019-05-23T11:30:48.067Z,11.50
2019-05-23T11:33:17.819Z,11.00
2019-05-23T11:35:46.925Z,11.10
2019-05-23T11:38:15.838Z,12.60
2019-05-23T11:40:44.959Z,12.10
2019-05-23T11:43:13.881Z,11.70
2019-05-23T11:46:05.648Z,11.00
2019-05-23T11:48:34.825Z,11.30
2019-05-23T11:51:03.801Z,11.80
2019-05-23T11:53:33.839Z,13.50
2019-05-23T11:56:02.817Z,14.40
2019-05-23T11:58:32.857Z,15.70
2019-05-23T12:01:37.196Z,16.40
2019-05-23T12:04:10.430Z,15.30
2019-05-23T12:06:55.575Z,14.50
2019-05-23T12:09:16.048Z,14.10
2019-05-23T12:11:45.126Z,14.30
2019-05-23T12:14:14.043Z,14.30
2019-05-23T12:16:43.164Z,14.10
2019-05-23T12:19:12.534Z,14.10
2019-05-23T12:21:41.334Z,16.00
2019-05-23T12:24:10.651Z,16.50
2019-05-23T12:26:39.496Z,17.10
2019-05-23T12:29:08.285Z,18.50
2019-05-23T12:31:37.070Z,19.70
2019-05-23T12:34:06.144Z,20.20
2019-05-23T12:36:35.178Z,19.80
2019-05-23T12:39:06.845Z,20.60
2019-05-23T12:41:35.711Z,21.30
2019-05-23T12:44:05.330Z,21.50
2019-05-23T12:46:34.258Z,22.30
2019-05-23T12:49:21.075Z,23.20
2019-05-23T12:51:50.880Z,23.50
2019-05-23T12:54:19.966Z,23.70
2019-05-23T12:56:49.368Z,24.50
2019-05-23T12:59:18.426Z,23.40
2019-05-23T13:01:49.280Z,23.30
2019-05-23T13:04:18.630Z,23.60
2019-05-23T13:06:47.744Z,24.40
2019-05-23T13:09:16.966Z,24.70
2019-05-23T13:11:45.916Z,24.60
2019-05-23T13:14:14.956Z,24.50
2019-05-23T13:16:44.167Z,24.50
2019-05-23T13:19:13.531Z,24.90
2019-05-23T13:21:42.731Z,24.30
2019-05-23T13:24:11.694Z,24.30
2019-05-23T13:26:40.613Z,24.40
2019-05-23T13:29:10.376Z,24.70
2019-05-23T13:31:39.445Z,24.80
2019-05-23T13:34:08.307Z,25.10
2019-05-23T13:36:37.317Z,25.10
2019-05-23T13:39:10.371Z,25.30
2019-05-23T13:41:39.230Z,25.20
2019-05-23T13:44:08.152Z,25.10
2019-05-23T13:46:37.377Z,26.00
2019-05-23T13:49:06.308Z,26.10
2019-05-23T13:51:35.179Z,26.60
2019-05-23T13:54:04.079Z,26.50
2019-05-23T13:56:33.251Z,27.60
2019-05-23T13:59:02.126Z,27.30
2019-05-23T14:01:31.080Z,26.80
2019-05-23T14:04:00.534Z,27.60
2019-05-23T14:06:29.307Z,27.60
2019-05-23T14:08:58.166Z,27.80
2019-05-23T14:11:27.006Z,27.70
2019-05-23T14:14:00.197Z,28.60
2019-05-23T14:16:28.553Z,28.40
2019-05-23T14:18:57.325Z,29.60
2019-05-23T14:21:27.915Z,29.70
2019-05-23T14:23:57.098Z,29.80
2019-05-23T14:26:27.578Z,30.00
2019-05-23T14:28:56.476Z,29.50
2019-05-23T14:31:25.354Z,29.70
2019-05-23T14:34:10.069Z,29.50
2019-05-23T14:36:57.559Z,29.80
2019-05-23T14:39:34.071Z,29.40
2019-05-23T14:42:08.778Z,29.50
2019-05-23T14:44:37.983Z,29.40
2019-05-23T14:47:29.971Z,30.10
2019-05-23T14:50:15.270Z,29.80
2019-05-23T14:52:45.801Z,30.20
2019-05-23T14:55:15.306Z,31.50
2019-05-23T14:57:44.206Z,31.00
2019-05-23T15:00:14.035Z,31.80
2019-05-23T15:02:42.888Z,31.50
2019-05-23T15:05:12.374Z,30.80
2019-05-23T15:07:41.202Z,31.00
2019-05-23T15:10:10.512Z,30.30
2019-05-23T15:12:39.535Z,30.30
2019-05-23T15:15:08.731Z,31.00
2019-05-23T15:17:37.491Z,31.30
2019-05-23T15:20:07.098Z,32.40
2019-05-23T15:22:36.049Z,32.50
2019-05-23T15:25:05.836Z,32.90
2019-05-23T15:27:34.926Z,33.80
2019-05-23T15:30:04.258Z,33.50
2019-05-23T15:32:33.219Z,33.40
2019-05-23T15:35:02.114Z,32.90
2019-05-23T15:37:30.965Z,33.50
2019-05-23T15:40:00.234Z,33.10
2019-05-23T15:42:29.933Z,34.00
2019-05-23T15:44:59.061Z,33.50
2019-05-23T15:47:31.499Z,34.40
2019-05-23T15:50:06.118Z,34.10
2019-05-23T15:52:45.051Z,34.90
2019-05-23T15:55:29.058Z,35.00
2019-05-23T15:58:03.171Z,34.70
2019-05-23T16:00:51.224Z,35.10
2019-05-23T16:03:39.035Z,34.90
2019-05-23T16:06:10.974Z,36.00
2019-05-23T16:08:40.114Z,35.10
2019-05-23T16:11:09.170Z,34.70
2019-05-23T16:13:38.303Z,34.80
2019-05-23T16:16:07.251Z,34.40
2019-05-23T16:18:36.492Z,34.60
2019-05-23T16:21:05.626Z,35.10
2019-05-23T16:23:34.567Z,34.50
2019-05-23T16:26:03.458Z,34.40
2019-05-23T16:28:32.310Z,34.70
2019-05-23T16:31:01.105Z,35.60
2019-05-23T16:33:30.318Z,35.80
2019-05-23T16:35:59.162Z,35.70
2019-05-23T16:38:28.074Z,36.40
2019-05-23T16:40:56.917Z,36.20
2019-05-23T16:43:26.159Z,36.20
2019-05-23T16:45:54.945Z,36.60
2019-05-23T16:48:23.915Z,36.60
2019-05-23T16:50:53.077Z,36.60
2019-05-23T16:53:22.027Z,36.10
2019-05-23T16:56:06.218Z,35.30
2019-05-23T16:58:44.791Z,35.50
2019-05-23T17:01:33.294Z,35.80
2019-05-23T17:04:15.272Z,36.20
2019-05-23T17:06:50.225Z,35.90
2019-05-23T17:09:41.415Z,37.10
2019-05-23T17:12:28.139Z,36.70
2019-05-23T17:15:12.126Z,37.30
2019-05-23T17:18:02.705Z,37.70
2019-05-23T17:20:47.340Z,38.50
2019-05-23T17:23:41.171Z,40.10
2019-05-23T17:26:21.999Z,40.10
2019-05-23T17:28:53.181Z,40.90
2019-05-23T17:31:25.280Z,41.50
2019-05-23T17:33:54.169Z,42.60
2019-05-23T17:36:23.058Z,41.50
2019-05-23T17:38:52.339Z,41.10
2019-05-23T17:41:21.523Z,41.50
2019-05-23T17:43:50.458Z,42.70
2019-05-23T17:46:19.276Z,43.00
2019-05-23T17:48:48.138Z,42.00
2019-05-23T17:51:17.009Z,44.50
2019-05-23T17:53:45.937Z,44.90
2019-05-23T17:56:14.722Z,46.50
2019-05-23T17:58:43.720Z,46.80
2019-05-23T18:01:13.157Z,48.50
2019-05-23T18:03:42.182Z,48.80
2019-05-23T18:06:11.895Z,49.20
2019-05-23T18:08:41.130Z,51.30
2019-05-23T18:11:10.274Z,52.90
2019-05-23T18:13:39.314Z,52.90
2019-05-23T18:16:11.515Z,54.20
2019-05-23T18:18:40.837Z,54.80
2019-05-23T18:21:09.781Z,55.40
2019-05-23T18:23:39.197Z,57.10
2019-05-23T18:26:08.281Z,58.00
2019-05-23T18:28:37.225Z,58.00
2019-05-23T18:31:17.164Z,58.90
2019-05-23T18:33:46.087Z,59.50
2019-05-23T18:36:15.458Z,60.10
2019-05-23T18:38:44.767Z,60.50
2019-05-23T18:41:13.883Z,61.00
2019-05-23T18:43:43.134Z,61.10
2019-05-23T18:46:20.950Z,62.40
2019-05-23T18:48:49.793Z,63.70
2019-05-23T18:51:18.785Z,63.80
2019-05-23T18:53:47.828Z,65.40
2019-05-23T18:56:17.383Z,66.10
2019-05-23T18:58:46.333Z,66.70
2019-05-23T19:01:24.741Z,67.00
2019-05-23T19:03:55.000Z,68.30
2019-05-23T19:06:23.987Z,69.40
2019-05-23T19:08:53.066Z,69.30
2019-05-23T19:11:22.494Z,69.20
2019-05-23T19:13:51.405Z,70.40
2019-05-23T19:16:20.456Z,70.50
2019-05-23T19:18:49.970Z,70.70
2019-05-23T19:21:19.818Z,72.20
2019-05-23T19:23:48.589Z,72.30
2019-05-23T19:26:18.390Z,71.90
2019-05-23T19:28:47.458Z,72.00
2019-05-23T19:31:16.770Z,73.10
2019-05-23T19:33:46.934Z,73.40
2019-05-23T19:36:16.277Z,73.90
2019-05-23T19:38:45.596Z,74.20
2019-05-23T19:41:14.513Z,75.10
2019-05-23T19:43:43.382Z,75.50
2019-05-23T19:46:12.742Z,76.10
2019-05-23T19:48:42.941Z,76.00
2019-05-23T19:51:11.792Z,74.90
2019-05-23T19:53:41.234Z,77.00
2019-05-23T19:56:10.519Z,77.40
2019-05-23T19:58:39.786Z,77.30
2019-05-23T20:01:09.031Z,77.90
2019-05-23T20:03:38.434Z,78.60
2019-05-23T20:06:09.673Z,78.40
2019-05-23T20:08:39.302Z,79.30
2019-05-23T20:11:08.670Z,79.40
2019-05-23T20:13:37.522Z,80.10
2019-05-23T20:16:07.308Z,80.60
2019-05-23T20:18:36.497Z,80.50
2019-05-23T20:21:05.453Z,81.00
2019-05-23T20:23:34.401Z,81.40
2019-05-23T20:26:07.495Z,82.30
2019-05-23T20:28:34.565Z,82.90
2019-05-23T20:31:04.702Z,81.80
2019-05-23T20:33:33.655Z,83.00
2019-05-23T20:36:06.619Z,83.50
2019-05-23T20:38:35.674Z,83.30
2019-05-23T20:41:04.929Z,83.30
2019-05-23T20:43:33.863Z,83.90
2019-05-23T20:46:02.811Z,84.30
2019-05-23T20:48:32.395Z,83.90
2019-05-23T20:51:01.378Z,85.20
2019-05-23T20:53:30.947Z,86.40
2019-05-23T20:55:59.897Z,86.30
2019-05-23T20:58:29.038Z,87.30
2019-05-23T21:01:02.898Z,87.60
2019-05-23T21:03:34.897Z,87.50
2019-05-23T21:06:03.290Z,87.70
2019-05-23T21:08:32.293Z,89.00
2019-05-23T21:11:01.761Z,88.20
2019-05-23T21:13:30.802Z,88.80
2019-05-23T21:15:59.673Z,86.90
2019-05-23T21:18:28.606Z,86.80
2019-05-23T21:20:57.534Z,87.10
2019-05-23T21:23:26.375Z,87.10
2019-05-23T21:26:02.850Z,87.60
2019-05-23T21:28:31.672Z,87.30
2019-05-23T21:31:00.604Z,87.60
2019-05-23T21:33:29.449Z,87.40
2019-05-23T21:35:58.255Z,87.70
2019-05-23T21:38:27.338Z,88.40
2019-05-23T21:40:56.134Z,88.20
2019-05-23T21:43:24.902Z,89.00
2019-05-23T21:45:53.757Z,89.40
2019-05-23T21:48:23.003Z,89.50
2019-05-23T21:50:52.122Z,89.60
2019-05-23T21:53:20.957Z,89.70
2019-05-23T21:55:49.829Z,89.90
2019-05-23T21:58:18.922Z,90.30
2019-05-23T22:01:26.928Z,90.70
2019-05-23T22:04:13.811Z,90.80
2019-05-23T22:06:46.512Z,90.80
2019-05-23T22:09:15.609Z,91.20
2019-05-23T22:11:44.566Z,91.30
2019-05-23T22:14:13.501Z,90.80
2019-05-23T22:16:42.417Z,91.00
2019-05-23T22:19:14.158Z,90.80
2019-05-23T22:21:42.965Z,90.50
2019-05-23T22:24:11.814Z,90.60
2019-05-23T22:26:40.676Z,90.30
2019-05-23T22:29:09.951Z,91.00
2019-05-23T22:31:38.950Z,90.80
2019-05-23T22:34:13.441Z,90.80
2019-05-23T22:36:42.562Z,91.30
2019-05-23T22:39:11.478Z,91.10
2019-05-23T22:41:40.342Z,91.20
2019-05-23T22:44:09.342Z,91.00
2019-05-23T22:46:38.838Z,91.20
2019-05-23T22:49:07.769Z,91.40
2019-05-23T22:51:36.530Z,91.50
2019-05-23T22:54:05.470Z,91.80
2019-05-23T22:56:34.241Z,91.90
2019-05-23T22:59:03.234Z,91.80
2019-05-23T23:01:32.366Z,92.10
2019-05-23T23:04:01.137Z,92.20
2019-05-23T23:06:30.352Z,92.30
2019-05-23T23:08:59.178Z,92.50
2019-05-23T23:11:28.022Z,92.50
2019-05-23T23:13:57.338Z,93.10
2019-05-23T23:16:26.452Z,93.10
2019-05-23T23:18:55.375Z,93.00
2019-05-23T23:21:24.414Z,93.50
2019-05-23T23:23:53.185Z,93.70
2019-05-23T23:26:22.019Z,93.50
2019-05-23T23:28:50.967Z,93.70
2019-05-23T23:31:19.843Z,93.70
2019-05-23T23:33:48.690Z,93.70
2019-05-23T23:36:17.521Z,93.60
2019-05-23T23:38:46.441Z,93.70
2019-05-23T23:41:15.202Z,93.80
2019-05-23T23:43:58.055Z,93.70
2019-05-23T23:46:32.989Z,93.60
2019-05-23T23:49:19.561Z,93.30
2019-05-23T23:52:06.141Z,93.20
2019-05-23T23:54:52.954Z,93.20
2019-05-23T23:57:40.793Z,93.20
